Time;durP1;ratioP1;P1;durP2;ratioP2;P2;SDS_P1;SDS_P2;PMS_P1;PMS_P2;Temp;Humidity;BMP_temperature;BMP_pressure;BME280_temperature;BME280_humidity;BME280_pressure;Samples;Min_cycle;Max_cycle;Signal;HPM_P1;HPM_P2
2022/03/24 00:01:36;;;;;;;14.53;13.13;;;9.90;30.70;;;;;;20394;6879;284803;-69
2022/03/24 00:04:02;;;;;;;14.40;13.02;;;10.10;29.10;;;;;;20407;6877;310328;-69
2022/03/24 00:06:28;;;;;;;15.13;12.30;;;10.50;28.60;;;;;;20618;6879;117583;-69
2022/03/24 00:08:53;;;;;;;12.98;11.77;;;10.50;28.60;;;;;;20624;6879;117781;-69
2022/03/24 00:11:20;;;;;;;15.33;12.13;;;10.20;28.90;;;;;;20617;6879;117630;-68
2022/03/24 00:13:44;;;;;;;14.93;13.50;;;10.00;29.20;;;;;;20370;6879;343793;-68
2022/03/24 00:16:10;;;;;;;14.77;13.37;;;10.20;29.20;;;;;;20621;6879;118428;-69
2022/03/24 00:18:35;;;;;;;15.40;13.83;;;10.20;29.10;;;;;;20396;6879;330133;-68
2022/03/24 00:21:01;;;;;;;15.35;13.98;;;10.40;28.90;;;;;;20398;6879;279781;-69
2022/03/24 00:23:27;;;;;;;15.00;13.57;;;10.70;28.30;;;;;;20399;6879;309628;-70
2022/03/24 00:25:52;;;;;;;15.20;13.90;;;10.90;27.80;;;;;;20402;6879;284400;-69
2022/03/24 00:39:17;;;;;;;13.33;12.03;;;9.90;29.80;;;;;;20619;6879;117571;-68
2022/03/24 00:41:43;;;;;;;13.53;12.23;;;9.60;30.00;;;;;;20580;6879;123499;-69
2022/03/24 00:44:09;;;;;;;14.35;12.95;;;9.70;31.10;;;;;;20411;6879;309558;-69
2022/03/24 00:46:35;;;;;;;13.93;12.83;;;9.70;31.10;;;;;;20409;6879;309559;-68
2022/03/24 00:49:01;;;;;;;13.30;11.90;;;10.10;29.80;;;;;;20623;6879;118591;-69
2022/03/24 00:51:27;;;;;;;13.03;11.73;;;10.00;29.70;;;;;;20621;6879;117726;-70
2022/03/24 00:53:53;;;;;;;15.07;13.77;;;9.80;30.80;;;;;;20240;6879;308143;-69
2022/03/24 00:56:18;;;;;;;15.67;14.27;;;10.00;30.00;;;;;;20410;6879;299325;-69
2022/03/24 00:58:43;;;;;;;13.40;12.10;;;10.40;29.90;;;;;;20624;6879;118427;-68
2022/03/24 01:01:12;;;;;;;15.88;14.32;;;10.30;29.80;;;;;;20410;6879;339121;-68
2022/03/24 01:03:36;;;;;;;14.83;13.33;;;10.40;29.10;;;;;;20545;6879;118210;-67
2022/03/24 01:06:03;;;;;;;14.38;13.10;;;10.30;29.00;;;;;;20397;6879;338354;-68
2022/03/24 01:08:27;;;;;;;14.50;12.70;;;10.30;29.20;;;;;;20578;6879;118574;-67
2022/03/24 01:10:55;;;;;;;14.60;12.93;;;10.30;29.20;;;;;;20601;6879;118859;-67
2022/03/24 01:13:21;;;;;;;15.23;13.63;;;10.10;29.40;;;;;;20399;6879;337924;-68
2022/03/24 01:15:45;;;;;;;15.97;14.47;;;10.20;29.80;;;;;;20379;6877;280080;-68
2022/03/24 01:18:10;;;;;;;13.03;11.83;;;10.50;29.10;;;;;;20617;6879;119595;-67
2022/03/24 01:20:35;;;;;;;13.37;12.07;;;10.40;29.10;;;;;;20620;6879;117933;-68
2022/03/24 01:23:00;;;;;;;15.90;14.50;;;10.10;29.40;;;;;;20417;6879;279860;-67
2022/03/24 01:25:27;;;;;;;15.47;14.10;;;10.20;30.00;;;;;;20408;6879;314485;-67
2022/03/24 01:27:52;;;;;;;14.37;12.90;;;10.50;29.20;;;;;;20591;6879;120470;-67
2022/03/24 01:30:17;;;;;;;14.93;11.77;;;10.30;29.10;;;;;;20621;6879;118142;-67
2022/03/24 01:32:43;;;;;;;15.37;13.87;;;10.00;29.40;;;;;;20406;6879;314502;-68
2022/03/24 01:35:08;;;;;;;16.30;14.63;;;10.00;29.70;;;;;;20406;6879;309633;-67
2022/03/24 01:37:34;;;;;;;16.02;14.40;;;10.30;29.60;;;;;;20390;6879;280506;-67
2022/03/24 01:39:59;;;;;;;16.23;14.63;;;10.50;29.60;;;;;;20407;6879;314532;-68
2022/03/24 01:42:26;;;;;;;16.10;14.40;;;10.70;29.60;;;;;;20414;6879;309857;-67
2022/03/24 01:44:51;;;;;;;14.43;13.17;;;10.80;28.70;;;;;;20615;6879;117900;-67
2022/03/24 01:47:16;;;;;;;14.50;13.00;;;10.50;28.90;;;;;;20622;6879;117872;-67
2022/03/24 01:49:42;;;;;;;15.38;11.88;;;10.00;29.30;;;;;;20606;6879;119189;-67
2022/03/24 01:52:07;;;;;;;13.38;12.05;;;9.60;30.50;;;;;;20610;6879;118165;-67
2022/03/24 01:54:33;;;;;;;13.60;12.27;;;9.30;31.00;;;;;;20617;6879;119226;-67
2022/03/24 01:56:58;;;;;;;13.57;12.33;;;9.00;31.40;;;;;;20612;6879;119788;-68
2022/03/24 01:59:24;;;;;;;14.63;12.47;;;8.80;31.70;;;;;;20610;6879;121794;-67
2022/03/24 02:01:49;;;;;;;16.33;13.90;;;8.60;31.90;;;;;;20388;6879;283805;-67
2022/03/24 02:04:15;;;;;;;15.03;13.57;;;8.80;32.50;;;;;;20618;6879;120045;-67
2022/03/24 02:06:40;;;;;;;13.87;12.50;;;8.80;32.30;;;;;;20624;6879;117910;-68
2022/03/24 02:09:07;;;;;;;15.33;13.17;;;8.40;32.60;;;;;;20617;6879;118236;-68
2022/03/24 02:11:35;;;;;;;14.47;12.93;;;8.40;32.60;;;;;;20605;6879;142461;-68
2022/03/24 02:14:01;;;;;;;14.47;12.97;;;8.20;33.00;;;;;;20611;6879;118156;-68
2022/03/24 02:16:38;;;;;;;14.00;12.63;;;7.90;33.50;;;;;;20612;6879;117919;-65
2022/03/24 02:19:16;;;;;;;16.47;13.00;;;7.90;33.50;;;;;;20608;6879;121449;-68
2022/03/24 02:21:41;;;;;;;14.27;13.00;;;7.80;33.70;;;;;;20374;6879;309489;-69
2022/03/24 02:24:06;;;;;;;16.00;14.60;;;8.00;33.80;;;;;;20410;6879;297898;-69
2022/03/24 02:26:35;;;;;;;14.73;13.20;;;8.30;33.20;;;;;;20615;6878;117552;-69
2022/03/24 02:28:58;;;;;;;14.07;12.77;;;8.30;33.20;;;;;;20611;6878;118051;-69
2022/03/24 02:31:24;;;;;;;14.93;13.05;;;8.10;33.50;;;;;;20616;6879;118675;-69
2022/03/24 02:34:37;;;;;;;12.88;11.77;;;7.90;33.80;;;;;;20600;6879;117883;-69
2022/03/24 02:36:18;;;;;;;15.00;13.77;;;7.70;34.00;;;;;;20341;6879;309975;-69
2022/03/24 02:38:44;;;;;;;17.13;14.10;;;7.90;34.10;;;;;;20619;6879;118598;-68
2022/03/24 02:41:10;;;;;;;16.63;14.93;;;7.80;34.10;;;;;;20399;6879;308763;-68
2022/03/24 02:43:35;;;;;;;16.67;15.00;;;8.10;34.20;;;;;;20383;6879;279748;-69
2022/03/24 02:46:01;;;;;;;14.23;12.87;;;8.40;33.70;;;;;;20618;6879;117695;-70
2022/03/24 02:48:27;;;;;;;18.20;13.88;;;8.30;33.70;;;;;;20617;6879;121886;-69
2022/03/24 02:50:53;;;;;;;14.63;13.13;;;8.00;34.10;;;;;;20618;6879;118104;-68
2022/03/24 02:53:19;;;;;;;14.30;12.90;;;7.70;34.40;;;;;;20614;6879;117427;-70
2022/03/24 02:55:43;;;;;;;16.50;15.00;;;7.50;34.60;;;;;;20379;6879;309072;-69
2022/03/24 02:58:09;;;;;;;15.53;13.23;;;7.70;34.80;;;;;;20615;6879;117700;-69
2022/03/24 03:00:34;;;;;;;14.77;13.37;;;7.70;34.60;;;;;;20613;6879;117484;-69
2022/03/24 03:03:00;;;;;;;17.43;15.73;;;7.50;34.70;;;;;;20405;6879;309831;-68
2022/03/24 03:05:25;;;;;;;14.97;13.57;;;7.60;34.90;;;;;;20614;6879;121396;-69
2022/03/24 03:07:52;;;;;;;16.98;15.50;;;7.80;34.70;;;;;;20388;6879;310531;-68
2022/03/24 03:10:18;;;;;;;15.77;14.27;;;7.80;34.70;;;;;;20612;6879;117529;-69
2022/03/24 03:12:46;;;;;;;17.53;15.73;;;7.90;34.50;;;;;;20410;6879;279972;-69
2022/03/24 03:15:09;;;;;;;15.83;14.13;;;7.90;34.50;;;;;;20611;6879;117640;-69
2022/03/24 03:17:36;;;;;;;15.95;14.35;;;7.80;34.40;;;;;;20599;6879;118211;-69
2022/03/24 03:20:01;;;;;;;17.33;15.63;;;7.60;34.60;;;;;;20403;6879;338558;-69
2022/03/24 03:22:26;;;;;;;16.47;14.80;;;7.70;34.80;;;;;;20623;6879;117659;-69
2022/03/24 03:24:51;;;;;;;17.25;15.75;;;7.70;34.80;;;;;;20414;6879;308982;-69
2022/03/24 03:27:17;;;;;;;16.27;14.60;;;7.90;34.70;;;;;;20627;6879;118433;-69
2022/03/24 03:29:42;;;;;;;16.73;15.23;;;7.80;34.60;;;;;;20383;6879;314272;-70
2022/03/24 03:32:09;;;;;;;16.23;14.70;;;7.90;34.50;;;;;;20401;6879;313947;-69
2022/03/24 03:34:34;;;;;;;17.40;15.90;;;8.40;34.30;;;;;;20400;6879;339089;-68
2022/03/24 03:37:00;;;;;;;17.70;15.98;;;8.40;33.60;;;;;;20408;6879;279367;-68
2022/03/24 03:39:25;;;;;;;17.48;15.93;;;8.60;33.50;;;;;;20406;6877;309207;-69
2022/03/24 03:41:51;;;;;;;17.57;15.87;;;8.60;33.30;;;;;;20385;6879;309564;-70
2022/03/24 03:44:17;;;;;;;14.73;13.43;;;8.70;33.30;;;;;;20611;6879;117845;-68
2022/03/24 03:46:43;;;;;;;17.63;16.03;;;8.30;33.70;;;;;;20400;6879;313720;-68
2022/03/24 03:49:08;;;;;;;18.57;14.50;;;8.30;33.70;;;;;;20617;6879;118837;-69
2022/03/24 03:51:35;;;;;;;19.13;14.67;;;7.70;34.40;;;;;;20596;6879;123534;-69
2022/03/24 03:54:00;;;;;;;18.58;16.77;;;7.60;34.30;;;;;;20407;6879;311316;-69
2022/03/24 03:56:26;;;;;;;16.93;15.43;;;7.80;34.70;;;;;;20398;6879;313641;-68
2022/03/24 03:58:51;;;;;;;16.00;14.18;;;8.00;34.40;;;;;;20616;6879;117882;-68
2022/03/24 04:01:17;;;;;;;17.93;16.23;;;7.90;34.30;;;;;;20407;6879;283750;-67
2022/03/24 04:03:42;;;;;;;17.62;15.95;;;7.90;34.20;;;;;;20385;6879;339158;-67
2022/03/24 04:06:09;;;;;;;15.63;14.27;;;8.10;34.20;;;;;;20398;6879;309448;-68
2022/03/24 04:08:35;;;;;;;16.45;14.85;;;8.30;34.20;;;;;;20392;6879;308636;-68
2022/03/24 04:11:00;;;;;;;24.13;15.13;;;8.40;34.00;;;;;;20608;6879;118724;-67
2022/03/24 04:13:25;;;;;;;17.83;16.17;;;8.20;34.10;;;;;;20389;6879;309540;-68
2022/03/24 04:15:50;;;;;;;17.20;15.50;;;8.20;34.10;;;;;;20603;6879;118209;-69
2022/03/24 04:18:16;;;;;;;15.30;13.80;;;8.00;34.10;;;;;;20608;6879;119283;-69
2022/03/24 04:20:42;;;;;;;17.37;15.67;;;7.80;35.40;;;;;;20406;6879;318917;-66
2022/03/24 04:23:08;;;;;;;19.37;15.23;;;7.80;35.30;;;;;;20626;6879;117536;-67
2022/03/24 04:25:33;;;;;;;15.98;14.35;;;7.80;35.30;;;;;;20597;6879;119306;-67
2022/03/24 04:27:59;;;;;;;17.73;15.82;;;7.60;35.40;;;;;;20605;6879;117608;-67
2022/03/24 04:30:26;;;;;;;18.70;17.00;;;7.50;35.80;;;;;;20405;6879;315402;-67
2022/03/24 04:32:51;;;;;;;17.63;16.03;;;7.50;35.40;;;;;;20407;6879;281167;-67
2022/03/24 04:35:16;;;;;;;15.23;13.93;;;7.90;35.10;;;;;;20622;6879;118408;-67
2022/03/24 04:37:42;;;;;;;17.98;16.33;;;7.80;35.00;;;;;;20373;6879;338782;-70
2022/03/24 04:40:07;;;;;;;17.03;15.37;;;7.90;35.00;;;;;;20597;6879;117838;-67
2022/03/24 04:42:33;;;;;;;18.30;16.50;;;7.90;34.90;;;;;;20382;6879;322862;-67
2022/03/24 04:44:59;;;;;;;17.07;15.03;;;7.90;34.50;;;;;;20627;6879;117947;-67
2022/03/24 04:47:24;;;;;;;18.30;16.53;;;7.70;34.50;;;;;;20417;6879;313114;-67
2022/03/24 04:49:50;;;;;;;17.17;15.47;;;7.70;34.50;;;;;;20599;6877;117556;-67
2022/03/24 04:52:15;;;;;;;18.33;14.77;;;7.60;34.60;;;;;;20600;6878;121283;-69
2022/03/24 04:54:41;;;;;;;17.17;15.45;;;7.20;35.00;;;;;;20599;6879;119079;-69
2022/03/24 04:57:06;;;;;;;18.23;16.37;;;6.90;35.30;;;;;;20393;6879;281436;-71
2022/03/24 04:59:33;;;;;;;17.33;14.68;;;7.00;35.70;;;;;;20575;6879;117689;-70
2022/03/24 05:01:59;;;;;;;17.83;16.23;;;6.90;35.60;;;;;;20394;6879;279884;-70
2022/03/24 05:04:24;;;;;;;17.87;16.27;;;7.10;36.10;;;;;;20405;6879;338043;-71
2022/03/24 05:06:50;;;;;;;17.37;15.87;;;7.30;35.70;;;;;;20628;6879;117318;-69
2022/03/24 05:09:16;;;;;;;16.13;14.33;;;7.20;35.70;;;;;;20626;6879;117499;-69
2022/03/24 05:11:41;;;;;;;15.83;14.33;;;6.80;36.00;;;;;;20583;6879;119351;-71
2022/03/24 05:14:08;;;;;;;16.67;14.48;;;6.60;36.50;;;;;;20623;6879;117782;-69
2022/03/24 05:16:33;;;;;;;18.73;16.93;;;6.50;36.90;;;;;;20402;6879;309119;-69
2022/03/24 05:18:59;;;;;;;18.33;16.63;;;6.60;37.00;;;;;;20411;6879;281164;-69
2022/03/24 05:21:25;;;;;;;17.93;16.23;;;7.20;36.40;;;;;;20406;6879;279407;-69
2022/03/24 05:23:53;;;;;;;19.12;17.37;;;7.40;35.90;;;;;;20389;6879;309491;-73
2022/03/24 05:26:20;;;;;;;16.70;15.10;;;7.40;35.90;;;;;;20621;6879;121369;-71
2022/03/24 05:28:45;;;;;;;18.23;16.03;;;6.90;36.30;;;;;;20609;6879;117922;-71
2022/03/24 05:31:11;;;;;;;18.92;17.27;;;6.90;36.30;;;;;;20399;6879;338279;-70
2022/03/24 05:33:36;;;;;;;17.70;15.93;;;6.90;36.30;;;;;;20598;6879;118342;-67
2022/03/24 05:36:02;;;;;;;16.45;14.80;;;6.90;36.40;;;;;;20608;6879;118627;-72
2022/03/24 05:38:28;;;;;;;16.53;14.93;;;6.60;36.60;;;;;;20601;6879;118607;-71
2022/03/24 05:40:54;;;;;;;15.63;14.13;;;6.40;36.90;;;;;;20613;6879;121367;-71
2022/03/24 05:43:19;;;;;;;15.93;14.43;;;6.30;37.20;;;;;;20602;6879;117497;-68
2022/03/24 05:45:44;;;;;;;19.23;15.85;;;6.20;37.40;;;;;;20600;6879;117695;-71
2022/03/24 05:48:10;;;;;;;18.92;17.23;;;6.10;37.50;;;;;;20396;6879;338972;-69
2022/03/24 05:50:41;;;;;;;17.43;15.70;;;6.40;37.60;;;;;;20611;6879;117489;-68
2022/03/24 05:53:06;;;;;;;19.00;17.20;;;6.50;37.30;;;;;;20417;6879;342108;-72
2022/03/24 05:55:34;;;;;;;19.07;17.03;;;6.80;37.80;;;;;;20575;6879;118345;-72
2022/03/24 05:57:58;;;;;;;19.65;17.90;;;6.90;37.00;;;;;;20406;6879;309421;-71
2022/03/24 06:00:23;;;;;;;18.13;16.33;;;7.20;36.70;;;;;;20610;6879;118009;-73
2022/03/24 06:02:49;;;;;;;18.92;17.23;;;7.40;36.60;;;;;;20422;6877;279031;-71
2022/03/24 06:05:14;;;;;;;19.77;17.97;;;7.60;36.00;;;;;;20410;6879;309069;-71
2022/03/24 06:07:43;;;;;;;19.85;17.87;;;8.00;35.50;;;;;;20407;6879;309131;-72
2022/03/24 06:10:08;;;;;;;17.73;15.77;;;8.40;35.10;;;;;;20624;6879;121473;-71
2022/03/24 06:12:34;;;;;;;19.52;17.73;;;8.50;34.90;;;;;;20407;6879;301718;-70
2022/03/24 06:15:02;;;;;;;18.37;16.60;;;8.50;34.80;;;;;;20619;6879;117615;-73
2022/03/24 06:17:28;;;;;;;17.30;15.50;;;8.50;35.00;;;;;;20618;6879;117640;-74
2022/03/24 06:19:54;;;;;;;16.27;14.63;;;8.40;35.10;;;;;;20616;6879;117652;-72
2022/03/24 06:22:19;;;;;;;21.17;15.47;;;8.30;35.40;;;;;;20621;6879;118705;-72
2022/03/24 06:24:45;;;;;;;19.47;17.63;;;8.60;35.90;;;;;;20413;6879;279852;-72
2022/03/24 06:27:11;;;;;;;19.83;17.98;;;8.60;35.30;;;;;;20407;6879;309999;-69
2022/03/24 06:29:37;;;;;;;19.60;17.87;;;9.00;34.60;;;;;;20386;6879;339583;-73
2022/03/24 06:32:03;;;;;;;19.87;17.87;;;9.50;34.00;;;;;;20407;6879;332839;-71
2022/03/24 06:34:28;;;;;;;19.37;17.47;;;9.80;33.30;;;;;;20400;6879;284512;-75
2022/03/24 06:36:57;;;;;;;19.40;17.50;;;10.10;31.90;;;;;;20413;6879;297851;-72
2022/03/24 06:39:20;;;;;;;17.10;15.60;;;10.20;31.70;;;;;;20594;6879;118118;-74
2022/03/24 06:41:45;;;;;;;19.10;17.40;;;10.20;31.80;;;;;;20376;6879;338319;-74
2022/03/24 06:44:11;;;;;;;16.80;15.23;;;10.20;31.80;;;;;;20621;6879;118040;-73
2022/03/24 06:46:40;;;;;;;17.67;14.73;;;10.10;32.10;;;;;;20621;6879;117647;-78
2022/03/24 06:49:05;;;;;;;18.20;16.40;;;9.90;33.50;;;;;;20401;6879;338477;-75
2022/03/24 06:51:31;;;;;;;17.62;15.93;;;10.10;32.10;;;;;;20389;6879;338345;-75
2022/03/24 06:53:57;;;;;;;16.20;14.70;;;10.50;31.60;;;;;;20622;6879;117957;-75
2022/03/24 06:56:23;;;;;;;18.67;17.03;;;10.50;31.60;;;;;;20409;6879;279694;-73
2022/03/24 06:58:49;;;;;;;15.53;14.00;;;10.70;31.50;;;;;;20618;6879;121589;-73
2022/03/24 07:01:15;;;;;;;17.65;14.60;;;10.50;32.10;;;;;;20621;6879;118121;-74
2022/03/24 07:03:41;;;;;;;17.43;15.10;;;10.60;32.20;;;;;;20599;6879;120099;-75
2022/03/24 07:06:06;;;;;;;18.17;16.50;;;10.40;32.40;;;;;;20404;6879;309727;-74
2022/03/24 07:08:32;;;;;;;17.93;16.23;;;10.60;32.10;;;;;;20408;6879;309613;-74
2022/03/24 07:10:57;;;;;;;18.40;16.37;;;11.00;31.60;;;;;;20387;6879;343139;-74
2022/03/24 07:13:23;;;;;;;18.40;16.80;;;11.40;31.10;;;;;;20400;6877;310115;-74
2022/03/24 07:15:50;;;;;;;17.57;15.57;;;11.60;30.80;;;;;;20597;6878;118026;-74
2022/03/24 07:18:15;;;;;;;18.30;16.53;;;11.50;30.90;;;;;;20401;6879;295855;-74
2022/03/24 07:20:41;;;;;;;18.00;16.30;;;11.60;30.70;;;;;;20621;6879;117744;-74
2022/03/24 07:23:08;;;;;;;18.48;16.83;;;11.50;30.90;;;;;;20403;6879;281231;-74
2022/03/24 07:25:33;;;;;;;18.95;17.23;;;12.00;30.90;;;;;;20403;6879;279912;-74
2022/03/24 07:27:58;;;;;;;18.77;17.00;;;12.00;30.80;;;;;;20405;6879;316997;-74
2022/03/24 07:30:25;;;;;;;16.47;14.77;;;12.20;30.20;;;;;;20623;6879;118432;-74
2022/03/24 07:32:50;;;;;;;18.83;17.03;;;12.20;30.20;;;;;;20404;6879;301351;-75
2022/03/24 07:35:18;;;;;;;17.27;15.67;;;12.30;30.00;;;;;;20610;6879;115073;-75
2022/03/24 07:37:43;;;;;;;16.57;15.07;;;12.30;30.30;;;;;;20593;6879;127601;-78
2022/03/24 07:40:09;;;;;;;17.83;16.30;;;12.20;30.60;;;;;;20411;6879;283350;-78
2022/03/24 07:42:35;;;;;;;17.70;15.80;;;12.40;30.60;;;;;;20630;6879;117783;-81
2022/03/24 07:45:01;;;;;;;18.83;17.13;;;12.50;30.70;;;;;;20396;6879;308753;-74
2022/03/24 07:47:26;;;;;;;18.03;15.73;;;12.70;30.00;;;;;;20623;6879;122520;-74
2022/03/24 07:49:52;;;;;;;17.80;15.93;;;12.80;30.10;;;;;;20600;6879;118746;-70
2022/03/24 07:52:17;;;;;;;19.17;17.03;;;12.70;30.30;;;;;;20387;6879;313348;-70
2022/03/24 07:54:50;;;;;;;18.27;15.47;;;12.90;30.40;;;;;;20616;6879;117669;-70
2022/03/24 07:57:15;;;;;;;19.37;17.27;;;13.10;30.60;;;;;;20382;6879;311492;-70
2022/03/24 07:59:42;;;;;;;18.50;16.65;;;13.40;30.00;;;;;;20594;6879;149443;-70
2022/03/24 08:02:08;;;;;;;18.48;16.62;;;13.50;30.00;;;;;;20405;6879;309628;-70
2022/03/24 08:04:34;;;;;;;18.50;16.60;;;13.80;29.20;;;;;;20617;6879;117889;-71
2022/03/24 08:06:59;;;;;;;18.60;15.43;;;13.90;29.40;;;;;;20613;6879;118529;-70
2022/03/24 08:09:24;;;;;;;18.65;17.05;;;13.90;29.60;;;;;;20406;6879;284048;-75
2022/03/24 08:11:50;;;;;;;18.83;17.17;;;14.10;29.00;;;;;;20357;6879;309023;-69
2022/03/24 08:14:16;;;;;;;19.83;17.70;;;14.60;28.60;;;;;;20401;6879;337159;-69
2022/03/24 08:16:41;;;;;;;19.23;17.23;;;15.00;28.20;;;;;;20626;6879;117833;-70
2022/03/24 08:19:07;;;;;;;18.80;17.10;;;15.10;28.40;;;;;;20410;6879;329433;-70
2022/03/24 08:21:32;;;;;;;18.53;16.63;;;15.20;28.30;;;;;;20602;6879;118466;-70
2022/03/24 08:23:59;;;;;;;18.87;17.02;;;15.30;28.40;;;;;;20406;6879;314442;-70
2022/03/24 08:26:25;;;;;;;18.13;16.23;;;15.40;27.80;;;;;;20626;6878;117631;-70
2022/03/24 08:28:55;;;;;;;19.10;17.20;;;15.70;27.70;;;;;;20406;6879;316878;-70
2022/03/24 08:31:17;;;;;;;19.50;17.50;;;15.70;27.60;;;;;;20398;6879;287675;-70
2022/03/24 08:33:42;;;;;;;18.92;17.33;;;16.00;27.30;;;;;;20389;6879;279938;-71
2022/03/24 08:36:09;;;;;;;19.73;17.87;;;16.40;27.10;;;;;;20406;6879;309104;-74
2022/03/24 08:38:34;;;;;;;17.57;15.90;;;16.70;27.50;;;;;;20617;6879;118713;-74
2022/03/24 08:41:00;;;;;;;19.98;17.92;;;16.60;27.10;;;;;;20404;6879;309966;-74
2022/03/24 08:43:26;;;;;;;19.87;17.93;;;17.00;26.80;;;;;;20406;6879;302128;-74
2022/03/24 08:45:51;;;;;;;18.43;16.53;;;17.00;26.80;;;;;;20600;6879;117973;-74
2022/03/24 08:48:17;;;;;;;19.62;17.73;;;17.00;27.00;;;;;;20410;6879;335594;-74
2022/03/24 08:50:43;;;;;;;18.70;16.80;;;17.20;26.40;;;;;;20619;6879;123819;-74
2022/03/24 08:53:08;;;;;;;20.50;17.80;;;17.20;26.70;;;;;;20405;6879;310508;-74
2022/03/24 08:55:35;;;;;;;20.50;18.43;;;17.60;25.60;;;;;;20388;6879;281451;-74
2022/03/24 08:58:00;;;;;;;19.73;18.00;;;17.50;25.50;;;;;;20405;6879;307547;-73
2022/03/24 09:00:28;;;;;;;18.62;16.58;;;17.80;26.00;;;;;;20620;6879;118237;-77
2022/03/24 09:02:55;;;;;;;18.50;16.73;;;17.80;26.30;;;;;;20616;6879;117890;-78
2022/03/24 09:05:23;;;;;;;18.77;16.55;;;17.50;26.60;;;;;;20621;6879;117891;-77
2022/03/24 09:07:49;;;;;;;18.87;17.07;;;17.50;26.60;;;;;;20604;6879;119325;-74
2022/03/24 09:10:16;;;;;;;21.62;19.42;;;17.70;26.50;;;;;;20403;6879;309113;-81
2022/03/24 09:12:44;;;;;;;18.07;16.17;;;17.70;26.50;;;;;;20612;6879;117670;-78
2022/03/24 09:15:09;;;;;;;19.20;17.20;;;17.90;26.50;;;;;;20608;6879;121444;-79
2022/03/24 09:17:38;;;;;;;20.50;18.33;;;18.20;25.70;;;;;;20385;6879;313736;-71
2022/03/24 09:20:09;;;;;;;20.83;18.53;;;18.10;25.60;;;;;;20401;6879;283810;-74
2022/03/24 09:22:33;;;;;;;18.57;16.77;;;18.60;25.50;;;;;;20605;6879;117711;-75
2022/03/24 09:24:58;;;;;;;21.03;18.97;;;18.60;25.40;;;;;;20410;6879;279526;-70
2022/03/24 09:27:25;;;;;;;21.07;17.43;;;18.80;25.10;;;;;;20613;6879;118218;-73
2022/03/24 09:29:52;;;;;;;20.63;18.53;;;18.80;25.40;;;;;;20387;6879;313730;-70
2022/03/24 09:32:16;;;;;;;21.10;19.00;;;19.00;24.90;;;;;;20401;6879;304795;-74
2022/03/24 09:34:43;;;;;;;20.70;18.95;;;19.70;24.30;;;;;;20408;6879;308915;-74
2022/03/24 09:37:08;;;;;;;20.77;18.53;;;19.60;24.20;;;;;;20619;6877;118834;-74
2022/03/24 09:39:35;;;;;;;19.77;17.87;;;19.40;24.80;;;;;;20602;6879;121356;-70
2022/03/24 09:42:00;;;;;;;19.60;17.50;;;19.40;24.80;;;;;;20612;6879;117934;-70
2022/03/24 09:44:26;;;;;;;19.80;17.70;;;19.30;25.10;;;;;;20622;6879;118103;-70
2022/03/24 09:46:51;;;;;;;23.17;20.83;;;19.20;25.30;;;;;;20399;6879;310356;-69
2022/03/24 09:49:17;;;;;;;20.63;18.53;;;19.40;24.40;;;;;;20618;6879;118710;-70
2022/03/24 09:51:43;;;;;;;19.73;17.83;;;19.60;24.60;;;;;;20595;6879;117922;-70
2022/03/24 09:54:10;;;;;;;21.87;19.87;;;19.50;25.00;;;;;;20411;6879;338645;-70
2022/03/24 09:56:34;;;;;;;20.97;18.87;;;19.70;24.50;;;;;;20617;6879;117712;-70
2022/03/24 09:58:59;;;;;;;20.93;18.93;;;19.90;24.60;;;;;;20623;6879;117634;-70
2022/03/24 10:01:25;;;;;;;21.13;19.07;;;19.80;25.30;;;;;;20621;6879;117636;-70
2022/03/24 10:04:11;;;;;;;22.20;19.80;;;19.80;24.90;;;;;;20385;6879;339135;-74
2022/03/24 10:06:36;;;;;;;20.03;17.77;;;20.10;24.50;;;;;;20613;6879;118112;-74
2022/03/24 10:09:02;;;;;;;22.67;20.53;;;20.20;24.60;;;;;;20404;6879;312698;-73
2022/03/24 10:11:27;;;;;;;22.33;20.10;;;20.50;23.80;;;;;;20400;6879;309592;-72
2022/03/24 10:13:54;;;;;;;22.50;20.30;;;20.80;24.10;;;;;;20388;6879;338316;-70
2022/03/24 10:16:38;;;;;;;20.63;18.57;;;21.10;23.70;;;;;;20610;6879;118167;-70
2022/03/24 10:19:10;;;;;;;19.23;17.43;;;21.10;23.90;;;;;;20606;6879;117666;-71
2022/03/24 10:21:42;;;;;;;21.93;20.03;;;20.90;24.20;;;;;;20378;6879;309576;-72
2022/03/24 10:24:08;;;;;;;20.23;18.23;;;21.00;23.60;;;;;;20576;6879;117889;-71
2022/03/24 10:26:50;;;;;;;19.63;17.67;;;21.10;23.80;;;;;;20611;6879;124092;-71
2022/03/24 10:29:19;;;;;;;22.70;20.60;;;21.00;23.90;;;;;;20394;6879;310088;-71
2022/03/24 10:31:44;;;;;;;21.80;19.87;;;21.20;23.00;;;;;;20374;6879;309765;-71
2022/03/24 10:34:11;;;;;;;21.60;19.70;;;21.40;22.50;;;;;;20383;6879;338324;-71
2022/03/24 10:36:37;;;;;;;22.37;20.37;;;21.70;23.60;;;;;;20405;6879;280794;-71
2022/03/24 10:39:05;;;;;;;21.53;19.33;;;21.90;22.80;;;;;;20617;6879;118130;-71
2022/03/24 10:41:34;;;;;;;20.00;18.20;;;22.00;23.00;;;;;;20600;6879;118902;-71
2022/03/24 10:44:09;;;;;;;21.77;19.67;;;21.80;23.10;;;;;;20613;6879;117903;-71
2022/03/24 10:46:35;;;;;;;20.10;18.30;;;21.70;23.10;;;;;;20609;6879;117976;-72
2022/03/24 10:49:22;;;;;;;19.80;17.57;;;21.50;23.00;;;;;;20619;6877;117840;-74
2022/03/24 10:51:47;;;;;;;19.00;17.20;;;21.30;23.10;;;;;;20366;6879;309982;-75
2022/03/24 10:54:15;;;;;;;18.17;16.60;;;21.60;21.90;;;;;;20608;6879;118094;-75
2022/03/24 10:56:40;;;;;;;18.20;16.30;;;21.70;22.20;;;;;;20622;6879;118558;-75
2022/03/24 10:59:06;;;;;;;16.52;15.02;;;21.60;22.40;;;;;;20589;6879;117907;-75
2022/03/24 11:01:32;;;;;;;16.00;14.47;;;21.60;22.40;;;;;;20588;6879;117780;-76
2022/03/24 11:03:58;;;;;;;18.57;16.70;;;21.50;21.50;;;;;;20613;6879;117800;-75
2022/03/24 11:06:24;;;;;;;17.17;15.43;;;21.50;21.50;;;;;;20598;6879;118386;-78
2022/03/24 11:08:53;;;;;;;19.37;17.67;;;21.40;21.50;;;;;;20411;6879;309553;-75
2022/03/24 11:11:19;;;;;;;17.70;16.17;;;21.60;20.40;;;;;;20602;6879;118499;-75
2022/03/24 11:13:58;;;;;;;16.93;15.50;;;21.60;20.50;;;;;;20589;6879;126251;-75
2022/03/24 11:16:27;;;;;;;18.92;17.37;;;21.50;21.00;;;;;;20411;6879;282281;-75
2022/03/24 11:18:53;;;;;;;17.90;16.33;;;21.70;19.90;;;;;;20606;6879;119341;-75
2022/03/24 11:21:41;;;;;;;17.33;15.77;;;21.80;20.30;;;;;;20609;6879;117671;-75
2022/03/24 11:24:07;;;;;;;15.87;14.67;;;21.70;20.50;;;;;;20619;6879;118483;-76
2022/03/24 11:26:34;;;;;;;18.00;16.60;;;21.50;20.60;;;;;;20391;6879;280044;-75
2022/03/24 11:28:58;;;;;;;18.30;16.60;;;21.80;20.30;;;;;;20383;6879;325159;-75
2022/03/24 11:31:28;;;;;;;18.20;16.80;;;22.30;18.80;;;;;;20405;6879;296071;-75
2022/03/24 11:33:50;;;;;;;19.63;17.90;;;22.30;18.80;;;;;;20349;6879;309128;-75
2022/03/24 11:36:18;;;;;;;18.53;16.93;;;22.50;19.50;;;;;;20606;6879;124753;-75
2022/03/24 11:38:48;;;;;;;19.30;17.70;;;22.40;19.80;;;;;;20400;6879;338588;-76
2022/03/24 11:41:24;;;;;;;18.60;16.80;;;22.40;20.00;;;;;;20402;6879;338736;-76
2022/03/24 11:43:50;;;;;;;16.20;14.70;;;22.40;20.10;;;;;;20591;6879;117872;-76
2022/03/24 11:46:16;;;;;;;16.97;15.53;;;22.50;19.40;;;;;;20397;6879;308457;-76
2022/03/24 11:48:42;;;;;;;17.73;16.23;;;22.40;19.30;;;;;;20367;6879;309405;-76
2022/03/24 11:51:17;;;;;;;16.97;15.47;;;22.60;18.60;;;;;;20615;6879;118352;-76
2022/03/24 11:53:43;;;;;;;16.80;15.27;;;22.50;19.10;;;;;;20380;6879;279180;-72
2022/03/24 11:56:09;;;;;;;16.40;15.17;;;22.50;18.40;;;;;;20398;6879;313395;-73
2022/03/24 11:58:41;;;;;;;17.83;16.33;;;22.60;18.40;;;;;;20402;6879;309997;-75
2022/03/24 12:01:19;;;;;;;17.05;15.65;;;22.80;18.80;;;;;;20398;6878;309130;-81
2022/03/24 12:03:51;;;;;;;16.33;14.87;;;22.80;18.20;;;;;;20598;6879;124934;-78
2022/03/24 12:06:14;;;;;;;16.37;15.18;;;22.70;18.60;;;;;;20383;6879;278965;-77
2022/03/24 12:08:49;;;;;;;15.17;13.77;;;22.60;18.90;;;;;;20614;6879;118293;-78
2022/03/24 12:11:31;;;;;;;16.10;14.85;;;22.50;19.00;;;;;;20357;6879;313105;-77
2022/03/24 12:13:57;;;;;;;16.48;15.18;;;22.70;17.90;;;;;;20404;6879;310059;-84
2022/03/24 12:16:23;;;;;;;16.03;14.53;;;22.70;17.90;;;;;;20616;6879;117623;-80
2022/03/24 12:18:49;;;;;;;15.47;14.30;;;22.30;18.60;;;;;;20618;6879;117839;-84
2022/03/24 12:21:18;;;;;;;16.65;15.25;;;22.30;18.50;;;;;;20401;6879;308241;-80
2022/03/24 12:24:03;;;;;;;16.60;15.13;;;22.40;18.90;;;;;;20552;6879;118371;-81
2022/03/24 12:26:29;;;;;;;15.77;14.40;;;22.30;18.70;;;;;;20613;6879;117731;-80
2022/03/24 12:29:11;;;;;;;17.50;16.20;;;22.10;19.00;;;;;;20413;6879;317651;-80